»·PEaware :: DCM205 KPDX-KRDD

DCM205 :: KPDX-KRDD

FLIGHT INFORMATION

Flight Status: Arrived
Operator:
DotCom
More flights by this operator :: More flights under this callsign
Pilot: Chris S. (2433)
Aircraft: DEHAVILLAND DASH 8 400
(DH8D)
More flights by this aircraft type
Origin: KPDX Portland Intl
United States
Destination: KRDD Redding Mun
United States
More flights between these airports :: More routes between these airports
Route: +PTLD1 UBG J126 RBL
File this flight plan on PilotEdge
Remarks:
Altitude:
(Current/Filed)
25,000ft
Speed:
(Current/Filed)
350kts
Departed: 09-Dec-19 12:11 PM
Arrived: 09-Dec-19 01:12 PM
Distance/Time
Traveled:
305nm/1:01
Distance/Time
To Go:
Arrived

Flight Plot

Page will automatically refresh every two minutes.

Flight plan parsing failed; only flown route is shown


Map Options




Map Legend


Flown Route
Filed Route
Departure Airport
Arrival Airport
Navaid (VOR, NDB)
Fix

Horizontal Profiles

Position Reports

Time Latitude Longitude Heading Altitude Ground
Speed
09-Dec-19 11:39 45.584676 -122.589742 28 25ft 0kts
09-Dec-19 11:40 45.584676 -122.589742 28 25ft 0kts
09-Dec-19 11:41 45.584676 -122.589742 28 25ft 0kts
09-Dec-19 11:42 45.584676 -122.589742 28 25ft 0kts
09-Dec-19 11:43 45.584676 -122.589742 28 25ft 0kts
09-Dec-19 11:44 45.584676 -122.589742 28 25ft 0kts
09-Dec-19 11:45 45.584676 -122.589742 28 25ft 0kts
09-Dec-19 11:47 45.584676 -122.589742 28 25ft 0kts
09-Dec-19 11:48 45.584676 -122.589742 28 25ft 0kts
09-Dec-19 11:49 45.584676 -122.589742 28 25ft 0kts
09-Dec-19 11:50 45.584676 -122.589742 28 25ft 0kts
09-Dec-19 11:51 45.584676 -122.589742 28 25ft 0kts
09-Dec-19 11:52 45.584676 -122.589742 28 25ft 0kts
09-Dec-19 11:53 45.584676 -122.589742 28 25ft 0kts
09-Dec-19 11:54 45.584676 -122.589742 28 25ft 0kts
09-Dec-19 11:55 45.584676 -122.589742 28 25ft 0kts
09-Dec-19 11:56 45.584676 -122.589742 28 25ft 0kts
09-Dec-19 11:57 45.584676 -122.589742 28 25ft 0kts
09-Dec-19 11:58 45.584676 -122.589742 28 25ft 0kts
09-Dec-19 11:59 45.584676 -122.589742 28 25ft 0kts
09-Dec-19 12:00 45.584676 -122.589742 28 25ft 0kts
09-Dec-19 12:01 45.584676 -122.589742 28 25ft 0kts
09-Dec-19 12:02 45.584676 -122.589742 28 25ft 0kts
09-Dec-19 12:03 45.584682 -122.589737 28 25ft 0kts
09-Dec-19 12:04 45.584769 -122.589713 190 25ft 3kts
09-Dec-19 12:04 45.585058 -122.592347 298 25ft 9kts
09-Dec-19 12:06 45.586999 -122.597329 299 25ft 16kts
09-Dec-19 12:07 45.589464 -122.603667 300 25ft 16kts
09-Dec-19 12:07 45.591716 -122.607804 298 25ft 21kts
09-Dec-19 12:09 45.595419 -122.617279 300 25ft 20kts
09-Dec-19 12:10 45.594730 -122.620340 118 25ft 26kts
09-Dec-19 12:10 45.581975 -122.587653 116 1135ft 138kts
09-Dec-19 12:11 45.558717 -122.527523 119 3160ft 199kts
09-Dec-19 12:13 45.524475 -122.450968 149 6799ft 191kts
09-Dec-19 12:13 45.488861 -122.475377 244 9159ft 202kts
09-Dec-19 12:14 45.466390 -122.553011 246 11257ft 235kts
09-Dec-19 12:15 45.437153 -122.642369 245 13004ft 253kts
09-Dec-19 12:16 45.405323 -122.733074 245 14649ft 260kts
09-Dec-19 12:17 45.371897 -122.825710 245 16082ft 266kts
09-Dec-19 12:18 45.337015 -122.920035 246 17348ft 271kts
09-Dec-19 12:19 45.284969 -122.992855 194 18431ft 292kts
09-Dec-19 12:20 45.203482 -123.008617 190 19411ft 299kts
09-Dec-19 12:21 45.123108 -123.024492 190 20911ft 284kts
09-Dec-19 12:22 45.044236 -123.040421 191 22117ft 283kts
09-Dec-19 12:23 44.964921 -123.056313 191 23178ft 286kts
09-Dec-19 12:24 44.884862 -123.072352 191 24149ft 289kts
09-Dec-19 12:25 44.805201 -123.088168 191 25133ft 288kts
09-Dec-19 12:26 44.721426 -123.105052 191 25270ft 316kts
09-Dec-19 12:27 44.630620 -123.123132 191 25274ft 339kts
09-Dec-19 12:28 44.535156 -123.141902 191 25276ft 354kts
09-Dec-19 12:29 44.436316 -123.161343 190 25276ft 363kts
09-Dec-19 12:30 44.335972 -123.180899 190 25275ft 368kts
09-Dec-19 12:31 44.233616 -123.200956 190 25275ft 371kts
09-Dec-19 12:32 44.131387 -123.220651 189 25275ft 374kts
09-Dec-19 12:33 44.027562 -123.204827 171 25275ft 378kts
09-Dec-19 12:34 43.923308 -123.184362 173 25274ft 379kts
09-Dec-19 12:35 43.818424 -123.164840 173 25271ft 380kts
09-Dec-19 12:36 43.713461 -123.144557 173 25267ft 381kts
09-Dec-19 12:37 43.608289 -123.124505 173 25262ft 381kts
09-Dec-19 12:38 43.503166 -123.104426 173 25257ft 382kts
09-Dec-19 12:39 43.397368 -123.084340 173 25253ft 383kts
09-Dec-19 12:40 43.291583 -123.064335 173 25251ft 384kts
09-Dec-19 12:41 43.185419 -123.044272 173 25248ft 384kts
09-Dec-19 12:42 43.079346 -123.024370 173 25244ft 385kts
09-Dec-19 12:43 42.973238 -123.004474 173 25240ft 385kts
09-Dec-19 12:44 42.867670 -122.984795 173 25237ft 386kts
09-Dec-19 12:45 42.762928 -122.965290 173 25236ft 386kts
09-Dec-19 12:46 42.656999 -122.945676 173 25239ft 387kts
09-Dec-19 12:47 42.551714 -122.926224 173 25251ft 387kts
09-Dec-19 12:48 42.445889 -122.905105 168 25268ft 387kts
09-Dec-19 12:49 42.341851 -122.872040 167 25274ft 388kts
09-Dec-19 12:50 42.237003 -122.841731 168 25251ft 389kts
09-Dec-19 12:51 42.130512 -122.811092 168 24010ft 394kts
09-Dec-19 12:52 42.023799 -122.779880 167 22609ft 392kts
09-Dec-19 12:53 41.917526 -122.748697 168 21208ft 390kts
09-Dec-19 12:54 41.811331 -122.718223 168 19802ft 388kts
09-Dec-19 12:55 41.706695 -122.687998 168 18407ft 385kts
09-Dec-19 12:56 41.603760 -122.658365 168 17237ft 378kts
09-Dec-19 12:57 41.502834 -122.629535 168 16798ft 365kts
09-Dec-19 12:58 41.404588 -122.601370 168 16115ft 364kts
09-Dec-19 12:59 41.306208 -122.568981 165 15317ft 364kts
09-Dec-19 13:00 41.208890 -122.535031 165 15036ft 356kts
09-Dec-19 13:01 41.114306 -122.502056 165 15026ft 346kts
09-Dec-19 13:02 41.020059 -122.469246 166 14882ft 359kts
09-Dec-19 13:03 40.926453 -122.436842 166 13474ft 337kts
09-Dec-19 13:04 40.848733 -122.389362 150 11826ft 292kts
09-Dec-19 13:05 40.782069 -122.340786 152 10029ft 275kts
09-Dec-19 13:06 40.716672 -122.307247 175 8048ft 244kts
09-Dec-19 13:07 40.653432 -122.300513 179 6363ft 203kts
09-Dec-19 13:08 40.603654 -122.294167 173 4461ft 157kts
09-Dec-19 13:09 40.561960 -122.294720 179 2105ft 145kts
09-Dec-19 13:10 40.524803 -122.294803 179 611ft 123kts
09-Dec-19 13:11 40.508240 -122.295844 272 510ft 9kts
09-Dec-19 13:12 40.507849 -122.296322 183 510ft 10kts
09-Dec-19 13:13 40.504807 -122.296342 181 510ft 19kts
09-Dec-19 13:14 40.503397 -122.297904 315 510ft 9kts
09-Dec-19 13:15 40.504661 -122.299107 314 510ft 0kts
09-Dec-19 13:16 40.504661 -122.299107 314 510ft 0kts

Navigation Log

Ident Type
Flight plan parsing failed, navigation log unavailable